KCQW

Details ICAO KCQW
Name CHERAW MUNI LYNCH BELLINGER FLD
Region United States
Timezone America/New_York (UTC-4.0)
Plans Departing 0
Arriving 1
Stats Elevation 239 ft / 73 m (AMSL)
Location 34.712875° -79.957004°
Runways 1
Magnetic Variation 8.268° W
Sunrise 2018-05-24 10:12:36 UTC / 2018-05-24 06:12:36 Local
Sunset 2018-05-25 00:23:38 UTC / 2018-05-24 20:23:38 Local
Advertisement - Login to hide

Runways

ID Width Length Bearing (true) Bearing (mag) Surface Threshold Offset Overrun Length
08 75 ft / 23 m 4,994 ft / 1,522 m 69.98° 78.25° Asphalt 0 ft / 0 m 0 ft / 0 m
26 75 ft / 23 m 4,994 ft / 1,522 m 249.99° 258.26° Asphalt 0 ft / 0 m 0 ft / 0 m

Map

Weather


0- 5 10 15 20 25 30 35+ Temperature / ° C

Clouds and Precipitation
Forecast for 2018-05-24 12:00 UTC. Updated 3 hours ago

Ground ~20,000 ft ~40,000 ft Winds

METAR

KCQW 241415Z AUTO 00000KT 10SM FEW006 BKN023 23/22 A3014 RMK AO2

TAF

Not found

Frequencies

Recorded 118.17 MHz AWOS 3
Approach 118.60 MHz FLORENCE APP/DEP
Unicom 122.80 MHz CTAF/UNICOM
Warning: Do not use this data for real-world aviation or navigation. No guarantee of current accuracy is given.